ENCN/KRS METAR and TAF weather

Enter ICAO airport designator
Station Type Date Time Source
ENCN METAR 2018/12/11 00:20 UTC NOAA

ENCN 110020Z AUTO 34009KT 310V020 9999 NCD 04/M06 Q1015


Station Type Date Time Source
ENCN Decoded METAR 2018/12/11 00:20 UTC NOAA

Kristiansand / Kjevik, Norway (ENCN) 58-12N 008-05E 17M
Dec 10, 2018 - 07:20 PM EST / 2018.12.11 0020 UTC
Wind: from the NNW (340 degrees) at 10 MPH (9 KT) (direction variable):0
Visibility: greater than 7 mile(s):0
Temperature: 39 F (4 C)
Dew Point: 21 F (-6 C)
Relative Humidity: 48%
Pressure (altimeter): 29.97 in. Hg (1015 hPa)
ob: ENCN 110020Z AUTO 34009KT 310V020 9999 NCD 04/M06 Q1015
cycle: 0

Station Type Date Time Source
ENCN TAF 2016/05/06 12:39 UTC NOAA

TAF TAF ENCN 061100Z 0612/0712 14008KT 9999 FEW040


Example: see airport list